ラゴス の空港の天気 - METARとTAF

ムルタラ・モハンマド国際空港 ( DNMM / LOS ) - ナイジェリア ラゴス州、Ikeja
飛行場実況気象(Metar)
観測時間10/24 04:00 WAT (10/24 03:00 UTC)
風向・風速不定 1m/s
視程8000m
天気現象
少しの雲 雲底高度 240m
気温24℃
湿度100%
気圧1014hPa
METARDNMM 240300Z VRB02KT 8000 FEW008 24/24 Q1014 TEMPO 5000 BR
過去の天気等 Google飛行場航空写真 Wunderground天気予報

過去48時間のMETAR

飛行場予報(TAF)
発表時間: 10/24 00:00 WAT (10/23 23:00 UTC)
予報対象時間: 24日1時 WAT ~ 25日7時 WAT
風向・風速不定 1m/s
視程8000m
全天の4割程度の雲 雲底高度 270m
24日1時 WAT ~ 24日4時 WAT に一時的に
風向・風速南 5m/s
視程5000m
天気現象弱い雷雨
全天の8割程度の雲 雲底高度 240m
少しの積乱雲 雲底高度 550m
24日6時 WAT ~ 24日9時 WAT に一時的に
視程3000m
天気現象もや
24日9時 WAT ~ 24日11時 WAT に徐々に
風向・風速西南西 5m/s
全天の8割程度の雲 雲底高度 370m
少しの積乱雲 雲底高度 610m
24日13時 WAT ~ 24日18時 WAT に一時的に
天気現象
24日19時 WAT ~ 24日21時 WAT に徐々に
風向・風速不定 1m/s
全天の4割程度の雲 雲底高度 300m
TAF DNMM 232300Z 2400/2506 VRB02KT 8000 SCT009
TEMPO 2400/2403 18010KT 5000 -TSRA BKN008 FEW018CB
TEMPO 2405/2408 3000 BR
BECMG 2408/2410 24010KT BKN012 FEW020CB
TEMPO 2412/2417 TS
BECMG 2418/2420 VRB02KT SCT010